Brentwood, New Hampshire
Current Conditions -  °F | °C
As of 4:39 PM on Thursday 23 Oct 2014 (Local Time) from KPSM Reporting Station
Drizzle Drizzle  
Wind Chill: 52°   Ceiling: 900
Heat Index: 52°   Visibility: 5mi
Dew Point: 50°   Wind: 21mph
Humidity: 94%   Direction: 20°NNE
Pressure: 29.66"   Gusts: 26mph
Location:  42.9832°N, 70.9915°W
Report Text: KPSM 232039Z 02018G23KT 5SM -DZ OVC009 11/10 A2966 RMK AO2A
Loading
Personal Weather Stations






























Interactive Weather Map
Tropical Storm Tracking
New forecast layout! Learn more

10-Day Weather Forecast

Advertisements
Track Severe Weather on mobile